Meadow, Texas
Current Conditions -  °F | °C
As of 9:53 AM on Saturday 25 Oct 2014 (Local Time) from KLBB Reporting Station
Clear Clear  
Wind Chill: 65°   Ceiling: Unl
Heat Index: 65°   Visibility: 10mi
Dew Point: 57°   Wind: 12mph
Humidity: 75%   Direction: 240°WSW
Pressure: 30.21"   Gusts: NA
Location:  33.34°N, 102.21°W
Report Text: KLBB 251453Z 24010KT 10SM CLR 18/14 A3021 RMK AO2 SLP195 T01830139 $
Loading
Personal Weather Stations






























Interactive Weather Map
Tropical Storm Tracking
New forecast layout! Learn more

10-Day Weather Forecast

Advertisements
Track Severe Weather on mobile